createdAt,value
2022-11-14T00:00:25.575Z,7.88
2022-11-14T00:05:46.701Z,7.97
2022-11-14T00:11:11.040Z,7.97
2022-11-14T00:16:31.392Z,7.88
2022-11-14T00:21:53.247Z,7.70
2022-11-14T00:27:13.715Z,7.61
2022-11-14T00:32:34.305Z,7.54
2022-11-14T00:37:54.902Z,7.45
2022-11-14T00:43:34.509Z,7.21
2022-11-14T00:49:24.878Z,7.18
2022-11-14T00:54:47.022Z,7.27
2022-11-14T01:01:04.922Z,7.29
2022-11-14T01:06:26.549Z,7.14
2022-11-14T01:11:47.018Z,6.97
2022-11-14T01:17:08.049Z,6.94
2022-11-14T01:22:29.896Z,6.90
2022-11-14T01:28:08.694Z,6.99
2022-11-14T01:33:44.923Z,7.07
2022-11-14T01:39:05.028Z,7.00
2022-11-14T01:44:44.566Z,6.93
2022-11-14T01:50:16.452Z,6.75
2022-11-14T01:55:38.107Z,6.78
2022-11-14T02:00:59.414Z,6.63
2022-11-14T02:06:22.619Z,6.61
2022-11-14T02:11:46.326Z,6.60
2022-11-14T02:17:28.403Z,6.49
2022-11-14T02:22:47.014Z,6.51
2022-11-14T02:28:09.549Z,6.55
2022-11-14T02:33:29.845Z,6.68
2022-11-14T02:38:50.286Z,6.52
2022-11-14T02:44:10.458Z,6.51
2022-11-14T02:49:30.442Z,6.47
2022-11-14T02:54:54.458Z,6.41
2022-11-14T03:00:15.585Z,6.34
2022-11-14T03:05:35.784Z,6.25
2022-11-14T03:10:56.136Z,6.24
2022-11-14T03:16:16.420Z,6.04
2022-11-14T03:21:36.821Z,5.97
2022-11-14T03:26:57.361Z,5.86
2022-11-14T03:32:18.063Z,5.87
2022-11-14T03:37:38.186Z,5.95
2022-11-14T03:42:58.284Z,5.88
2022-11-14T03:48:20.706Z,5.78
2022-11-14T03:53:41.138Z,5.84
2022-11-14T03:59:01.785Z,5.81
2022-11-14T04:04:22.249Z,5.75
2022-11-14T04:09:44.926Z,5.78
2022-11-14T04:15:05.714Z,5.72
2022-11-14T04:20:26.014Z,5.66
2022-11-14T04:25:46.521Z,5.70
2022-11-14T04:31:06.931Z,5.65
2022-11-14T04:36:27.184Z,5.79
2022-11-14T04:41:47.055Z,5.64
2022-11-14T04:47:07.054Z,5.73
2022-11-14T04:52:27.081Z,5.75
2022-11-14T04:57:47.120Z,5.74
2022-11-14T05:03:07.228Z,5.65
2022-11-14T05:08:27.908Z,5.55
2022-11-14T05:13:48.363Z,5.73
2022-11-14T05:19:08.698Z,5.79
2022-11-14T05:24:28.800Z,5.74
2022-11-14T05:29:49.077Z,5.73
2022-11-14T05:35:09.601Z,5.59
2022-11-14T05:40:29.871Z,5.64
2022-11-14T05:45:50.422Z,5.66
2022-11-14T05:51:11.540Z,5.59
2022-11-14T05:56:31.884Z,5.71
2022-11-14T06:01:52.119Z,5.64
2022-11-14T06:07:16.237Z,5.52
2022-11-14T06:12:39.147Z,5.52
2022-11-14T06:17:59.616Z,5.58
2022-11-14T06:23:24.627Z,5.71
2022-11-14T06:28:47.447Z,5.60
2022-11-14T06:34:07.667Z,5.51
2022-11-14T06:39:28.759Z,5.64
2022-11-14T06:44:51.980Z,5.68
2022-11-14T06:50:16.292Z,5.71
2022-11-14T06:55:36.615Z,5.73
2022-11-14T07:00:56.758Z,5.67
2022-11-14T07:06:18.624Z,5.66
2022-11-14T07:11:49.165Z,5.71
2022-11-14T07:17:09.143Z,5.67
2022-11-14T07:22:29.061Z,5.66
2022-11-14T07:27:54.141Z,5.67
2022-11-14T07:33:22.226Z,5.70
2022-11-14T07:38:42.696Z,5.66
2022-11-14T07:44:03.026Z,5.72
2022-11-14T07:49:24.210Z,5.47
2022-11-14T07:54:44.273Z,5.41
2022-11-14T08:00:04.323Z,5.47
2022-11-14T08:05:25.169Z,5.47
2022-11-14T08:10:45.315Z,5.51
2022-11-14T08:16:11.938Z,5.51
2022-11-14T08:21:32.852Z,5.46
2022-11-14T08:26:52.824Z,5.40
2022-11-14T08:32:13.398Z,5.29
2022-11-14T08:37:33.666Z,5.33
2022-11-14T08:42:58.772Z,5.39
2022-11-14T08:48:18.827Z,5.45
2022-11-14T08:53:38.705Z,5.39
2022-11-14T08:58:58.678Z,5.34
2022-11-14T09:04:19.009Z,5.51
2022-11-14T09:09:39.442Z,5.56
2022-11-14T09:15:00.027Z,5.52
2022-11-14T09:20:20.499Z,5.60
2022-11-14T09:25:40.577Z,5.72
2022-11-14T09:31:04.516Z,5.75
2022-11-14T09:36:24.449Z,5.83
2022-11-14T09:41:44.670Z,5.87
2022-11-14T09:47:07.851Z,5.98
2022-11-14T09:52:37.023Z,5.87
2022-11-14T09:57:57.475Z,5.88
2022-11-14T10:03:20.666Z,5.96
2022-11-14T10:08:43.985Z,5.90
2022-11-14T10:14:16.224Z,5.94
2022-11-14T10:19:48.463Z,6.08
2022-11-14T10:25:27.614Z,6.12
2022-11-14T10:30:55.809Z,6.17
2022-11-14T10:36:20.340Z,6.20
2022-11-14T10:41:57.168Z,6.37
2022-11-14T10:47:22.551Z,6.41
2022-11-14T10:52:44.201Z,6.49
2022-11-14T10:58:13.196Z,6.58
2022-11-14T11:03:43.816Z,6.68
2022-11-14T11:09:33.003Z,6.70
2022-11-14T11:15:08.598Z,6.87
2022-11-14T11:20:39.044Z,6.89
2022-11-14T11:26:18.992Z,7.01
2022-11-14T11:31:52.810Z,7.04
2022-11-14T11:37:16.065Z,7.11
2022-11-14T11:48:32.890Z,7.29
2022-11-14T11:53:55.964Z,7.39
2022-11-14T11:59:33.841Z,7.41
2022-11-14T12:04:56.155Z,7.44
2022-11-14T12:10:20.449Z,7.56
2022-11-14T12:16:16.325Z,7.67
2022-11-14T12:21:41.564Z,7.71
2022-11-14T12:27:20.590Z,7.80
2022-11-14T12:32:40.973Z,7.90
2022-11-14T12:38:03.150Z,7.91
2022-11-14T12:43:36.442Z,8.01
2022-11-14T12:48:57.584Z,8.08
2022-11-14T12:54:36.345Z,8.12
2022-11-14T13:00:01.337Z,8.17
2022-11-14T13:05:24.390Z,8.21
2022-11-14T13:10:44.328Z,8.29
2022-11-14T13:16:23.317Z,8.27
2022-11-14T13:22:03.629Z,8.31
2022-11-14T13:33:41.484Z,8.36
2022-11-14T13:39:20.751Z,8.43
2022-11-14T13:44:44.139Z,8.44
2022-11-14T13:50:08.955Z,8.46
2022-11-14T13:55:37.753Z,8.46
2022-11-14T14:01:05.573Z,8.41
2022-11-14T14:06:45.727Z,8.40
2022-11-14T14:12:22.419Z,8.37
2022-11-14T14:17:43.374Z,8.29
2022-11-14T14:23:12.765Z,8.33
2022-11-14T14:28:53.413Z,8.27
2022-11-14T14:34:24.106Z,8.21
2022-11-14T14:39:55.651Z,8.18
2022-11-14T14:45:20.404Z,8.15
2022-11-14T14:50:41.844Z,8.05
2022-11-14T14:56:03.061Z,8.00
2022-11-14T15:01:34.323Z,7.94
2022-11-14T15:06:58.399Z,7.89
2022-11-14T15:12:18.753Z,7.67
2022-11-14T15:17:39.170Z,7.59
2022-11-14T15:23:19.255Z,7.48
2022-11-14T15:28:39.406Z,7.41
2022-11-14T15:34:07.295Z,7.31
2022-11-14T15:39:28.423Z,7.39
2022-11-14T15:44:49.156Z,7.27
2022-11-14T15:50:12.386Z,7.27
2022-11-14T15:55:34.699Z,7.26
2022-11-14T16:00:55.151Z,7.17
2022-11-14T16:06:17.089Z,7.12
2022-11-14T16:11:37.585Z,7.08
2022-11-14T16:16:57.538Z,7.06
2022-11-14T16:22:17.842Z,6.93
2022-11-14T16:27:37.798Z,7.00
2022-11-14T16:32:58.586Z,6.89
2022-11-14T16:38:18.809Z,6.78
2022-11-14T16:43:39.173Z,6.72
2022-11-14T16:49:02.627Z,6.64
2022-11-14T16:54:22.680Z,6.63
2022-11-14T16:59:49.376Z,6.61
2022-11-14T17:05:09.997Z,6.72
2022-11-14T17:10:30.177Z,6.84
2022-11-14T17:16:00.461Z,6.59
2022-11-14T17:21:20.921Z,6.49
2022-11-14T17:26:44.447Z,6.38
2022-11-14T17:32:05.057Z,6.32
2022-11-14T17:37:27.637Z,6.39
2022-11-14T17:42:47.604Z,6.51
2022-11-14T17:48:07.809Z,6.46
2022-11-14T17:53:29.225Z,6.44
2022-11-14T17:58:51.260Z,6.33
2022-11-14T18:04:11.684Z,6.37
2022-11-14T18:09:32.204Z,6.32
2022-11-14T18:14:53.372Z,6.30
2022-11-14T18:20:14.307Z,6.32
2022-11-14T18:25:34.823Z,6.25
2022-11-14T18:30:59.004Z,6.17
2022-11-14T18:36:20.488Z,6.12
2022-11-14T18:41:50.044Z,6.15
2022-11-14T18:47:13.707Z,6.13
2022-11-14T18:52:38.464Z,6.13
2022-11-14T18:57:59.072Z,6.11
2022-11-14T19:03:29.556Z,6.08
2022-11-14T19:08:50.174Z,5.96
2022-11-14T19:14:11.193Z,6.01
2022-11-14T19:19:42.435Z,5.92
2022-11-14T19:25:06.344Z,5.91
2022-11-14T19:30:31.222Z,5.86
2022-11-14T19:35:55.789Z,5.84
2022-11-14T19:41:18.035Z,5.87
2022-11-14T19:46:42.919Z,6.01
2022-11-14T19:52:06.486Z,6.04
2022-11-14T19:57:32.591Z,5.97
2022-11-14T20:02:53.398Z,5.89
2022-11-14T20:08:14.152Z,5.82
2022-11-14T20:13:36.403Z,5.74
2022-11-14T20:19:01.247Z,5.65
2022-11-14T20:24:26.045Z,5.45
2022-11-14T20:29:51.515Z,5.57
2022-11-14T20:35:15.656Z,5.41
2022-11-14T20:40:37.761Z,5.39
2022-11-14T20:46:07.225Z,5.34
2022-11-14T20:51:29.080Z,5.27
2022-11-14T20:57:01.492Z,5.45
2022-11-14T21:02:38.686Z,5.49
2022-11-14T21:07:58.998Z,5.54
2022-11-14T21:13:55.179Z,5.49
2022-11-14T21:19:22.206Z,5.33
2022-11-14T21:24:45.901Z,5.23
2022-11-14T21:30:08.150Z,5.23
2022-11-14T21:41:41.463Z,5.31
2022-11-14T21:47:04.565Z,5.31
2022-11-14T21:52:25.866Z,5.44
2022-11-14T21:57:46.149Z,5.60
2022-11-14T22:03:25.994Z,5.63
2022-11-14T22:08:56.437Z,5.59
2022-11-14T22:14:31.104Z,5.67
2022-11-14T22:19:51.754Z,5.60
2022-11-14T22:25:12.359Z,5.65
2022-11-14T22:30:33.916Z,5.73
2022-11-14T22:35:54.275Z,5.85
2022-11-14T22:41:19.216Z,5.89
2022-11-14T22:46:39.639Z,5.98
2022-11-14T22:51:59.846Z,5.98
2022-11-14T22:57:20.153Z,5.92
2022-11-14T23:02:40.795Z,6.08
2022-11-14T23:08:02.405Z,6.09
2022-11-14T23:13:22.578Z,6.15
2022-11-14T23:18:42.889Z,6.24
2022-11-14T23:24:05.157Z,6.18
2022-11-14T23:29:25.335Z,6.21
2022-11-14T23:34:45.478Z,6.04
2022-11-14T23:40:05.864Z,6.10
2022-11-14T23:45:25.883Z,6.08
2022-11-14T23:50:49.312Z,6.12
2022-11-14T23:56:11.065Z,6.09
